»·PEaware :: DCM205 KPHX-KSAN

DCM205 :: KPHX-KSAN

FLIGHT INFORMATION

Flight Status: Arrived
Operator:
DotCom
More flights by this operator :: More flights under this callsign
Pilot: Chris S. (2433)
Aircraft: AIRBUS A320
(A320)
More flights by this aircraft type
Origin: KPHX Phoenix Sky Harbor Intl
United States
Destination: KSAN San Diego Intl-Lindbergh
United States
More flights between these airports :: More routes between these airports
Route: +FYRBD1 MOHAK HOGGZ LUCKI1
File this flight plan on PilotEdge
Remarks:
Altitude:
(Current/Filed)
32,000ft
Speed:
(Current/Filed)
450kts
Departed: 09-Jun-20 08:14 AM
Arrived: 09-Jun-20 09:06 AM
Distance/Time
Traveled:
264nm/0:52
Distance/Time
To Go:
Arrived

Flight Plot

Page will automatically refresh every two minutes.

Flight plan parsing failed; only flown route is shown


Map Options




Map Legend


Flown Route
Filed Route
Departure Airport
Arrival Airport
Navaid (VOR, NDB)
Fix

Horizontal Profiles

Position Reports

Time Latitude Longitude Heading Altitude Ground
Speed
09-Jun-20 07:58 33.433952 -112.007939 297 1149ft 0kts
09-Jun-20 07:59 33.433952 -112.007939 297 1149ft 0kts
09-Jun-20 08:00 33.433952 -112.007939 297 1149ft 0kts
09-Jun-20 08:01 33.433952 -112.007939 297 1149ft 0kts
09-Jun-20 08:02 33.433952 -112.007939 297 1149ft 0kts
09-Jun-20 08:03 33.433952 -112.007939 297 1149ft 0kts
09-Jun-20 08:04 33.433855 -112.007692 288 1149ft 2kts
09-Jun-20 08:05 33.433903 -112.006970 219 1149ft 0kts
09-Jun-20 08:06 33.433903 -112.006970 219 1149ft 0kts
09-Jun-20 08:07 33.433782 -112.007081 215 1149ft 4kts
09-Jun-20 08:08 33.432831 -112.008167 269 1149ft 6kts
09-Jun-20 08:09 33.432827 -112.013706 270 1149ft 20kts
09-Jun-20 08:10 33.432836 -112.020539 269 1149ft 21kts
09-Jun-20 08:11 33.432684 -112.026818 221 1149ft 12kts
09-Jun-20 08:12 33.431874 -112.026970 182 1149ft 5kts
09-Jun-20 08:13 33.431095 -112.020372 91 1149ft 94kts
09-Jun-20 08:14 33.432261 -111.966742 83 2958ft 173kts
09-Jun-20 08:15 33.434206 -111.899006 85 4818ft 227kts
09-Jun-20 08:16 33.394475 -111.844310 171 7712ft 261kts
09-Jun-20 08:17 33.352140 -111.902761 280 10443ft 263kts
09-Jun-20 08:18 33.361915 -111.992527 273 12456ft 301kts
09-Jun-20 08:19 33.318940 -112.089455 234 13789ft 362kts
09-Jun-20 08:20 33.257637 -112.187504 237 16067ft 373kts
09-Jun-20 08:21 33.195254 -112.288883 236 18168ft 385kts
09-Jun-20 08:22 33.131053 -112.392868 236 20091ft 393kts
09-Jun-20 08:23 33.065263 -112.499011 236 21826ft 402kts
09-Jun-20 08:24 32.997965 -112.607303 236 23392ft 410kts
09-Jun-20 08:25 32.947740 -112.727350 263 24755ft 409kts
09-Jun-20 08:26 32.931608 -112.862567 263 26034ft 418kts
09-Jun-20 08:27 32.912260 -113.000588 263 27228ft 426kts
09-Jun-20 08:28 32.893247 -113.140335 263 28533ft 428kts
09-Jun-20 08:29 32.873950 -113.279775 263 29969ft 425kts
09-Jun-20 08:30 32.854697 -113.417927 263 31299ft 422kts
09-Jun-20 08:31 32.835368 -113.555402 263 32147ft 421kts
09-Jun-20 08:32 32.815928 -113.692582 263 32139ft 421kts
09-Jun-20 08:33 32.796265 -113.830505 263 32155ft 422kts
09-Jun-20 08:34 32.776815 -113.967921 266 32169ft 421kts
09-Jun-20 08:35 32.776259 -114.106293 274 32112ft 417kts
09-Jun-20 08:36 32.781888 -114.243043 274 32085ft 411kts
09-Jun-20 08:37 32.788035 -114.380510 280 32124ft 418kts
09-Jun-20 08:38 32.822091 -114.511677 290 32138ft 416kts
09-Jun-20 08:39 32.857891 -114.642540 289 32156ft 415kts
09-Jun-20 08:40 32.879341 -114.776725 270 32100ft 418kts
09-Jun-20 08:41 32.874873 -114.914431 270 31807ft 418kts
09-Jun-20 08:42 32.872084 -115.053052 269 30810ft 417kts
09-Jun-20 08:43 32.868707 -115.189432 269 28958ft 406kts
09-Jun-20 08:44 32.865373 -115.321738 269 26971ft 393kts
09-Jun-20 08:45 32.849969 -115.448227 261 25037ft 383kts
09-Jun-20 08:46 32.830847 -115.570711 259 23207ft 372kts
09-Jun-20 08:47 32.811230 -115.690188 259 21482ft 364kts
09-Jun-20 08:48 32.792007 -115.806909 259 19848ft 356kts
09-Jun-20 08:49 32.779442 -115.922078 266 18188ft 348kts
09-Jun-20 08:50 32.771198 -116.035764 265 16581ft 342kts
09-Jun-20 08:51 32.762710 -116.147331 265 15056ft 336kts
09-Jun-20 08:52 32.754278 -116.257185 266 13552ft 330kts
09-Jun-20 08:53 32.746086 -116.362592 266 12559ft 303kts
09-Jun-20 08:54 32.738421 -116.461159 266 10968ft 300kts
09-Jun-20 08:55 32.729557 -116.560812 264 9343ft 306kts
09-Jun-20 08:56 32.720220 -116.657032 265 8355ft 279kts
09-Jun-20 08:57 32.713280 -116.746030 266 6839ft 266kts
09-Jun-20 08:58 32.704789 -116.828919 251 5760ft 232kts
09-Jun-20 08:59 32.682436 -116.899461 251 4758ft 226kts
09-Jun-20 09:00 32.679160 -116.967658 292 3681ft 206kts
09-Jun-20 09:01 32.694090 -117.027274 289 2715ft 184kts
09-Jun-20 09:02 32.707370 -117.081730 288 1987ft 157kts
09-Jun-20 09:03 32.719229 -117.129853 286 994ft 143kts
09-Jun-20 09:04 32.729999 -117.175160 286 184ft 140kts
09-Jun-20 09:05 32.736074 -117.201617 247 29ft 17kts
09-Jun-20 09:06 32.735746 -117.202197 232 29ft 3kts
09-Jun-20 09:07 32.734949 -117.203735 193 29ft 4kts
09-Jun-20 09:08 32.734634 -117.203832 196 29ft 0kts
09-Jun-20 09:09 32.734634 -117.203832 196 29ft 0kts
09-Jun-20 09:10 32.734634 -117.203832 196 29ft 0kts
09-Jun-20 09:11 32.734634 -117.203832 196 29ft 0kts
09-Jun-20 09:12 32.734634 -117.203832 196 29ft 0kts
09-Jun-20 09:13 32.734634 -117.203832 196 29ft 0kts
09-Jun-20 09:14 32.734634 -117.203832 196 29ft 0kts
09-Jun-20 09:15 32.734634 -117.203832 196 29ft 0kts
09-Jun-20 09:16 32.734634 -117.203832 196 29ft 0kts
09-Jun-20 09:17 32.734634 -117.203832 196 29ft 0kts
09-Jun-20 09:18 32.734634 -117.203832 196 29ft 0kts
09-Jun-20 09:19 32.734634 -117.203832 196 29ft 0kts
09-Jun-20 09:20 32.734634 -117.203832 196 29ft 0kts

Navigation Log

Ident Type
Flight plan parsing failed, navigation log unavailable